createdAt,value
2023-01-27T00:03:37.943Z,1028.7
2023-01-27T00:08:40.204Z,1028.8
2023-01-27T00:13:40.153Z,1028.8
2023-01-27T00:18:37.943Z,1028.7
2023-01-27T00:23:37.898Z,1028.8
2023-01-27T00:28:37.970Z,1028.8
2023-01-27T00:38:37.940Z,1028.8
2023-01-27T00:43:37.910Z,1028.8
2023-01-27T00:48:37.940Z,1028.9
2023-01-27T00:53:37.890Z,1028.9
2023-01-27T00:58:38.000Z,1028.8
2023-01-27T01:03:37.938Z,1028.8
2023-01-27T01:08:39.261Z,1028.7
2023-01-27T01:13:37.909Z,1028.6
2023-01-27T01:18:38.005Z,1028.6
2023-01-27T01:23:37.902Z,1028.7
2023-01-27T01:28:37.959Z,1028.8
2023-01-27T01:33:37.901Z,1028.8
2023-01-27T01:38:37.994Z,1028.7
2023-01-27T01:43:37.893Z,1028.8
2023-01-27T01:48:39.233Z,1028.8
2023-01-27T01:53:37.915Z,1028.8
2023-01-27T01:58:40.253Z,1028.7
2023-01-27T02:03:37.895Z,1028.7
2023-01-27T02:08:37.969Z,1028.8
2023-01-27T02:13:40.211Z,1028.9
2023-01-27T02:18:37.970Z,1028.9
2023-01-27T02:23:37.914Z,1028.9
2023-01-27T02:28:39.202Z,1028.8
2023-01-27T02:33:39.204Z,1028.9
2023-01-27T02:38:37.967Z,1029.0
2023-01-27T02:43:37.901Z,1028.9
2023-01-27T02:48:37.973Z,1028.9
2023-01-27T02:53:37.906Z,1028.9
2023-01-27T02:58:39.261Z,1028.8
2023-01-27T03:03:40.161Z,1028.8
2023-01-27T03:08:39.188Z,1028.7
2023-01-27T03:13:39.181Z,1028.7
2023-01-27T03:18:37.973Z,1028.8
2023-01-27T03:23:37.912Z,1028.7
2023-01-27T03:28:40.204Z,1028.7
2023-01-27T03:33:37.906Z,1028.7
2023-01-27T03:38:37.980Z,1028.7
2023-01-27T03:43:40.191Z,1028.7
2023-01-27T03:48:39.187Z,1028.6
2023-01-27T03:53:37.914Z,1028.7
2023-01-27T03:58:38.009Z,1028.7
2023-01-27T04:03:37.925Z,1028.7
2023-01-27T04:08:37.971Z,1028.7
2023-01-27T04:13:40.198Z,1028.7
2023-01-27T04:18:37.975Z,1028.7
2023-01-27T04:23:37.924Z,1028.5
2023-01-27T04:28:44.138Z,1028.6
2023-01-27T04:33:39.184Z,1028.6
2023-01-27T04:38:37.975Z,1028.6
2023-01-27T04:43:37.916Z,1028.6
2023-01-27T04:48:37.970Z,1028.6
2023-01-27T04:53:39.175Z,1028.5
2023-01-27T04:58:39.230Z,1028.5
2023-01-27T05:03:37.924Z,1028.4
2023-01-27T05:08:39.172Z,1028.4
2023-01-27T05:13:37.927Z,1028.5
2023-01-27T05:18:40.184Z,1028.5
2023-01-27T05:23:40.182Z,1028.6
2023-01-27T05:28:37.990Z,1028.6
2023-01-27T05:33:37.925Z,1028.6
2023-01-27T05:43:37.948Z,1028.6
2023-01-27T05:48:40.245Z,1028.7
2023-01-27T05:53:37.937Z,1028.6
2023-01-27T05:58:38.030Z,1028.6
2023-01-27T06:13:37.932Z,1028.5
2023-01-27T06:18:40.189Z,1028.6
2023-01-27T06:23:37.938Z,1028.6
2023-01-27T06:28:37.992Z,1028.6
2023-01-27T06:33:37.960Z,1028.6
2023-01-27T06:43:39.623Z,1028.6
2023-01-27T06:48:41.995Z,1028.6
2023-01-27T07:03:39.580Z,1028.7
2023-01-27T07:08:38.008Z,1028.7
2023-01-27T07:13:37.956Z,1028.7
2023-01-27T07:18:38.012Z,1028.6
2023-01-27T07:23:37.938Z,1028.6
2023-01-27T07:28:38.014Z,1028.8
2023-01-27T07:38:38.026Z,1028.9
2023-01-27T07:43:37.953Z,1029.0
2023-01-27T07:53:37.986Z,1029.1
2023-01-27T07:58:38.071Z,1029.1
2023-01-27T08:03:38.002Z,1029.1
2023-01-27T08:08:38.244Z,1029.2
2023-01-27T08:13:37.977Z,1029.2
2023-01-27T08:18:38.022Z,1029.2
2023-01-27T08:28:40.044Z,1029.3
2023-01-27T08:33:40.971Z,1029.3
2023-01-27T08:38:38.034Z,1029.3
2023-01-27T08:43:40.220Z,1029.3
2023-01-27T08:48:38.032Z,1029.4
2023-01-27T08:53:37.951Z,1029.5
2023-01-27T08:58:38.067Z,1029.5
2023-01-27T09:03:40.206Z,1029.5
2023-01-27T09:08:39.332Z,1029.6
2023-01-27T09:13:37.955Z,1029.6
2023-01-27T09:23:37.935Z,1029.7
2023-01-27T09:28:40.212Z,1029.7
2023-01-27T09:33:37.955Z,1029.7
2023-01-27T09:38:38.096Z,1029.6
2023-01-27T09:43:37.951Z,1029.6
2023-01-27T09:48:37.978Z,1029.6
2023-01-27T09:53:40.216Z,1029.5
2023-01-27T09:58:38.085Z,1029.5
2023-01-27T10:03:40.209Z,1029.5
2023-01-27T10:08:39.234Z,1029.5
2023-01-27T10:13:40.251Z,1029.5
2023-01-27T10:18:37.969Z,1029.5
2023-01-27T10:23:37.966Z,1029.5
2023-01-27T10:28:37.983Z,1029.5
2023-01-27T10:33:37.972Z,1029.5
2023-01-27T10:38:39.258Z,1029.5
2023-01-27T10:43:37.977Z,1029.5
2023-01-27T10:48:37.964Z,1029.5
2023-01-27T10:53:39.240Z,1029.5
2023-01-27T10:58:38.047Z,1029.5
2023-01-27T11:03:37.979Z,1029.6
2023-01-27T11:08:38.062Z,1029.6
2023-01-27T11:13:37.996Z,1029.6
2023-01-27T11:18:38.047Z,1029.6
2023-01-27T11:23:37.980Z,1029.5
2023-01-27T11:28:38.045Z,1029.4
2023-01-27T11:33:40.268Z,1029.4
2023-01-27T11:38:38.041Z,1029.4
2023-01-27T11:53:37.985Z,1029.1
2023-01-27T11:58:38.052Z,1029.0
2023-01-27T12:03:38.062Z,1029.0
2023-01-27T12:08:40.284Z,1028.9
2023-01-27T12:13:38.009Z,1028.9
2023-01-27T12:18:38.061Z,1028.8
2023-01-27T12:23:37.973Z,1028.8
2023-01-27T12:28:40.249Z,1028.8
2023-01-27T12:33:37.987Z,1028.7
2023-01-27T12:38:38.050Z,1028.6
2023-01-27T12:43:37.993Z,1028.6
2023-01-27T12:48:40.250Z,1028.6
2023-01-27T12:53:37.998Z,1028.5
2023-01-27T12:58:38.088Z,1028.5
2023-01-27T13:03:38.026Z,1028.4
2023-01-27T13:08:38.054Z,1028.4
2023-01-27T13:13:37.999Z,1028.3
2023-01-27T13:18:38.055Z,1028.3
2023-01-27T13:23:37.996Z,1028.4
2023-01-27T13:28:51.128Z,1028.3
2023-01-27T13:33:38.006Z,1028.2
2023-01-27T13:38:38.066Z,1028.2
2023-01-27T13:43:40.514Z,1028.0
2023-01-27T13:48:38.158Z,1028.0
2023-01-27T13:53:38.002Z,1028.0
2023-01-27T13:58:38.117Z,1028.0
2023-01-27T14:03:38.046Z,1028.0
2023-01-27T14:08:38.079Z,1028.0
2023-01-27T14:13:40.015Z,1028.1
2023-01-27T14:18:38.074Z,1028.1
2023-01-27T14:23:38.007Z,1028.1
2023-01-27T14:28:38.068Z,1028.0
2023-01-27T14:33:38.023Z,1028.0
2023-01-27T14:38:38.071Z,1028.1
2023-01-27T14:43:37.997Z,1028.0
2023-01-27T14:48:38.076Z,1028.1
2023-01-27T14:53:38.018Z,1028.1
2023-01-27T14:58:38.115Z,1028.1
2023-01-27T15:03:38.028Z,1028.1
2023-01-27T15:08:38.079Z,1028.1
2023-01-27T15:13:38.021Z,1028.1
2023-01-27T15:18:38.079Z,1028.2
2023-01-27T15:23:38.024Z,1028.1
2023-01-27T15:28:38.071Z,1028.1
2023-01-27T15:33:38.037Z,1028.1
2023-01-27T15:38:38.072Z,1028.1
2023-01-27T15:43:38.059Z,1028.1
2023-01-27T15:48:38.080Z,1028.1
2023-01-27T15:53:38.025Z,1028.1
2023-01-27T15:58:38.131Z,1028.1
2023-01-27T16:03:38.042Z,1028.1
2023-01-27T16:08:38.082Z,1028.1
2023-01-27T16:13:38.024Z,1028.1
2023-01-27T16:18:38.073Z,1028.2
2023-01-27T16:23:38.022Z,1028.2
2023-01-27T16:28:38.082Z,1028.2
2023-01-27T16:33:38.041Z,1028.1
2023-01-27T16:38:38.096Z,1028.2
2023-01-27T16:43:38.055Z,1028.2
2023-01-27T16:48:38.107Z,1028.2
2023-01-27T16:53:38.031Z,1028.2
2023-01-27T16:58:46.594Z,1028.3
2023-01-27T17:03:38.041Z,1028.3
2023-01-27T17:08:38.093Z,1028.3
2023-01-27T17:13:38.065Z,1028.4
2023-01-27T17:18:51.771Z,1028.4
2023-01-27T17:23:38.257Z,1028.4
2023-01-27T17:28:38.127Z,1028.4
2023-01-27T17:33:38.059Z,1028.4
2023-01-27T17:38:38.137Z,1028.5
2023-01-27T17:43:38.051Z,1028.6
2023-01-27T17:48:38.104Z,1028.7
2023-01-27T17:53:38.053Z,1028.6
2023-01-27T17:58:38.154Z,1028.7
2023-01-27T18:03:38.045Z,1028.7
2023-01-27T18:08:38.135Z,1028.7
2023-01-27T18:13:38.122Z,1028.7
2023-01-27T18:18:38.111Z,1028.6
2023-01-27T18:23:38.110Z,1028.7
2023-01-27T18:28:38.139Z,1028.6
2023-01-27T18:33:38.105Z,1028.6
2023-01-27T18:38:38.116Z,1028.6
2023-01-27T18:43:38.067Z,1028.6
2023-01-27T18:48:39.911Z,1028.5
2023-01-27T18:53:38.075Z,1028.5
2023-01-27T18:58:38.220Z,1028.5
2023-01-27T19:03:38.042Z,1028.5
2023-01-27T19:08:38.147Z,1028.5
2023-01-27T19:13:38.062Z,1028.6
2023-01-27T19:18:38.061Z,1028.6
2023-01-27T19:23:38.057Z,1028.5
2023-01-27T19:28:38.169Z,1028.6
2023-01-27T19:33:38.064Z,1028.5
2023-01-27T19:38:38.152Z,1028.5
2023-01-27T19:43:38.132Z,1028.6
2023-01-27T19:48:38.156Z,1028.6
2023-01-27T19:53:38.077Z,1028.6
2023-01-27T19:58:38.191Z,1028.6
2023-01-27T20:03:38.086Z,1028.7
2023-01-27T20:08:38.149Z,1028.8
2023-01-27T20:13:38.074Z,1028.8
2023-01-27T20:18:38.148Z,1028.7
2023-01-27T20:23:38.083Z,1028.8
2023-01-27T20:28:38.257Z,1028.7
2023-01-27T20:33:38.098Z,1028.8
2023-01-27T20:38:38.152Z,1028.8
2023-01-27T20:43:38.092Z,1028.8
2023-01-27T20:48:38.305Z,1028.8
2023-01-27T20:53:38.094Z,1028.8
2023-01-27T20:58:38.219Z,1028.9
2023-01-27T21:03:38.099Z,1028.8
2023-01-27T21:08:38.189Z,1028.8
2023-01-27T21:13:38.113Z,1028.7
2023-01-27T21:18:38.175Z,1028.5
2023-01-27T21:28:38.175Z,1028.5
2023-01-27T21:33:38.122Z,1028.5
2023-01-27T21:43:38.110Z,1028.5
2023-01-27T21:48:38.213Z,1028.5
2023-01-27T21:53:38.146Z,1028.3
2023-01-27T21:58:38.230Z,1028.3
2023-01-27T22:03:38.341Z,1028.3
2023-01-27T22:08:38.221Z,1028.3
2023-01-27T22:13:38.119Z,1028.2
2023-01-27T22:18:38.242Z,1028.1
2023-01-27T22:23:38.120Z,1028.0
2023-01-27T22:28:38.221Z,1028.0
2023-01-27T22:33:38.137Z,1028.0
2023-01-27T22:38:38.182Z,1028.0
2023-01-27T22:43:38.141Z,1028.1
2023-01-27T22:48:38.241Z,1028.1
2023-01-27T22:53:38.146Z,1028.1
2023-01-27T22:58:38.283Z,1028.1
2023-01-27T23:03:38.141Z,1028.1
2023-01-27T23:08:38.216Z,1028.1
2023-01-27T23:13:38.154Z,1028.0
2023-01-27T23:18:38.207Z,1028.0
2023-01-27T23:23:38.154Z,1027.9
2023-01-27T23:28:38.245Z,1027.9
2023-01-27T23:33:38.159Z,1027.8
2023-01-27T23:38:38.252Z,1027.8
2023-01-27T23:43:38.173Z,1027.9
2023-01-27T23:48:38.243Z,1027.7
2023-01-27T23:53:38.175Z,1027.8
2023-01-27T23:58:38.279Z,1027.8
